Time;durP1;ratioP1;P1;durP2;ratioP2;P2;SDS_P1;SDS_P2;PMS_P1;PMS_P2;Temp;Humidity;BMP_temperature;BMP_pressure;BME280_temperature;BME280_humidity;BME280_pressure;Samples;Min_cycle;Max_cycle;Signal;HPM_P1;HPM_P2
2021/10/19 00:00:08;;;;;;;12.30;7.85;;;13.80;99.90;;;;;;5071142;28;20059;-88
2021/10/19 00:02:33;;;;;;;13.18;8.70;;;13.70;99.90;;;;;;5075107;28;20207;-88
2021/10/19 00:04:59;;;;;;;12.40;8.40;;;13.80;99.90;;;;;;5077085;28;20024;-88
2021/10/19 00:07:25;;;;;;;10.30;7.82;;;13.70;99.90;;;;;;5080099;28;20032;-88
2021/10/19 00:09:50;;;;;;;11.73;8.15;;;13.70;99.90;;;;;;5067165;28;20055;-88
2021/10/19 00:12:16;;;;;;;13.43;8.10;;;13.70;99.90;;;;;;5062582;28;20399;-88
2021/10/19 00:14:41;;;;;;;13.52;8.35;;;13.60;99.90;;;;;;5068698;28;20067;-88
2021/10/19 00:17:07;;;;;;;12.02;8.23;;;13.60;99.90;;;;;;5075039;28;20533;-89
2021/10/19 00:19:33;;;;;;;12.93;8.52;;;13.60;99.90;;;;;;5071395;28;20162;-88
2021/10/19 00:21:58;;;;;;;9.82;7.90;;;13.60;99.90;;;;;;5075053;28;20518;-88
2021/10/19 00:24:24;;;;;;;10.98;8.52;;;13.60;99.90;;;;;;5073014;28;20023;-88
2021/10/19 00:26:50;;;;;;;12.68;8.75;;;13.60;99.90;;;;;;5075129;28;20043;-88
2021/10/19 00:29:15;;;;;;;11.32;8.40;;;13.60;99.90;;;;;;5070406;28;20047;-88
2021/10/19 00:31:41;;;;;;;11.82;8.65;;;13.60;99.90;;;;;;5091356;28;20035;-88
2021/10/19 00:34:06;;;;;;;12.23;8.85;;;13.60;99.90;;;;;;5069747;28;20078;-88
2021/10/19 00:36:32;;;;;;;10.57;7.78;;;13.50;99.90;;;;;;5073572;28;20032;-88
2021/10/19 00:38:57;;;;;;;10.77;8.32;;;13.50;99.90;;;;;;5068519;28;20433;-88
2021/10/19 00:41:23;;;;;;;11.15;7.82;;;13.50;99.90;;;;;;5069229;28;20118;-89
2021/10/19 00:43:50;;;;;;;12.73;9.07;;;13.50;99.90;;;;;;5066538;28;20522;-88
2021/10/19 00:46:16;;;;;;;10.82;8.02;;;13.50;99.90;;;;;;5093587;28;20042;-89
2021/10/19 00:48:46;;;;;;;11.70;8.75;;;13.50;99.90;;;;;;5107908;28;20017;-88
2021/10/19 00:51:12;;;;;;;12.45;9.07;;;13.50;99.90;;;;;;5092858;28;20039;-88
2021/10/19 00:53:37;;;;;;;11.57;8.45;;;13.50;99.90;;;;;;5087497;28;20076;-88
2021/10/19 00:56:06;;;;;;;12.68;8.85;;;13.50;99.90;;;;;;5091940;28;21834;-87
2021/10/19 00:58:31;;;;;;;12.70;9.43;;;13.50;99.90;;;;;;5105860;28;20092;-88
2021/10/19 01:00:57;;;;;;;13.68;9.45;;;13.50;99.90;;;;;;5110984;28;20063;-88
2021/10/19 01:03:22;;;;;;;14.60;9.23;;;13.40;99.90;;;;;;5109543;28;20032;-88
2021/10/19 01:05:48;;;;;;;11.95;9.20;;;13.40;99.90;;;;;;5105510;28;20102;-88
2021/10/19 01:08:13;;;;;;;14.50;9.65;;;13.40;99.90;;;;;;5090378;28;20169;-88
2021/10/19 01:10:39;;;;;;;13.32;9.90;;;13.40;99.90;;;;;;5094473;28;20036;-88
2021/10/19 01:13:05;;;;;;;15.45;9.65;;;13.40;99.90;;;;;;5093103;28;20028;-88
2021/10/19 01:15:32;;;;;;;13.25;9.80;;;13.40;99.90;;;;;;5092292;28;20094;-88
2021/10/19 01:17:59;;;;;;;12.40;8.88;;;13.40;99.90;;;;;;5095410;28;20035;-88
2021/10/19 01:20:27;;;;;;;13.05;9.23;;;13.40;99.90;;;;;;5097096;28;20019;-88
2021/10/19 01:22:55;;;;;;;12.02;9.38;;;13.40;99.90;;;;;;5089116;28;20035;-88
2021/10/19 01:25:22;;;;;;;14.85;9.32;;;13.40;99.90;;;;;;5097140;28;20479;-88
2021/10/19 01:27:52;;;;;;;12.60;9.07;;;13.40;99.90;;;;;;5092121;27;20023;-88
2021/10/19 01:30:18;;;;;;;13.70;9.68;;;13.50;99.90;;;;;;5109525;28;20023;-88
2021/10/19 01:32:44;;;;;;;11.68;8.43;;;13.50;99.90;;;;;;5123374;27;20554;-88
2021/10/19 01:35:11;;;;;;;14.43;9.00;;;13.60;99.90;;;;;;5110669;28;20024;-88
2021/10/19 01:37:36;;;;;;;12.18;9.73;;;13.60;99.90;;;;;;5107560;28;20030;-88
2021/10/19 01:40:07;;;;;;;13.25;9.23;;;13.60;99.90;;;;;;5098341;28;20036;-88
2021/10/19 01:42:34;;;;;;;12.52;9.13;;;13.70;99.90;;;;;;5106729;28;20116;-88
2021/10/19 01:45:00;;;;;;;11.52;9.02;;;13.70;99.90;;;;;;5075575;28;20031;-87
2021/10/19 01:47:27;;;;;;;13.75;9.00;;;13.70;99.90;;;;;;5090621;28;20039;-88
2021/10/19 01:49:53;;;;;;;11.18;8.68;;;13.70;99.90;;;;;;5073641;28;20040;-88
2021/10/19 01:52:18;;;;;;;11.85;9.18;;;13.80;99.90;;;;;;5077636;28;20356;-88
2021/10/19 01:54:44;;;;;;;12.93;8.90;;;13.80;99.90;;;;;;5070576;28;20021;-88
2021/10/19 01:57:09;;;;;;;12.20;9.20;;;13.80;99.90;;;;;;5082361;28;20369;-87
2021/10/19 01:59:34;;;;;;;12.73;8.68;;;13.80;99.90;;;;;;5072341;28;20085;-88
2021/10/19 02:02:00;;;;;;;14.10;8.35;;;13.90;99.90;;;;;;5081383;28;20082;-87
2021/10/19 02:04:25;;;;;;;10.48;8.15;;;13.90;99.90;;;;;;5071341;28;20384;-88
2021/10/19 02:06:51;;;;;;;12.85;8.57;;;13.90;99.90;;;;;;5065814;28;20775;-88
2021/10/19 02:09:16;;;;;;;11.90;8.30;;;13.90;99.90;;;;;;5072478;28;20071;-88
2021/10/19 02:11:42;;;;;;;14.23;9.48;;;13.90;99.90;;;;;;5073469;28;20028;-88
2021/10/19 02:14:07;;;;;;;12.05;8.75;;;13.90;99.90;;;;;;5072691;28;20373;-88
2021/10/19 02:16:33;;;;;;;12.35;7.95;;;13.90;99.90;;;;;;5073343;28;20106;-87
2021/10/19 02:18:58;;;;;;;11.15;8.90;;;13.90;99.90;;;;;;5065990;28;20035;-88
2021/10/19 02:21:24;;;;;;;10.23;8.57;;;14.00;99.90;;;;;;5072764;28;20047;-88
2021/10/19 02:23:49;;;;;;;10.35;7.97;;;14.00;99.90;;;;;;5074906;28;20031;-88
2021/10/19 02:26:15;;;;;;;10.25;8.05;;;14.00;99.90;;;;;;5071694;28;20032;-87
2021/10/19 02:28:40;;;;;;;11.65;7.88;;;14.00;99.90;;;;;;5092794;28;20036;-87
2021/10/19 02:31:06;;;;;;;10.98;8.13;;;14.10;99.90;;;;;;5074305;28;20039;-88
2021/10/19 02:33:33;;;;;;;11.20;8.43;;;14.10;99.90;;;;;;5075351;28;20479;-88
2021/10/19 02:35:58;;;;;;;9.80;7.40;;;14.10;99.90;;;;;;5078101;28;20024;-88
2021/10/19 02:38:24;;;;;;;10.02;7.35;;;14.20;99.90;;;;;;5075492;28;20031;-88
2021/10/19 02:40:50;;;;;;;12.88;8.27;;;14.10;99.90;;;;;;5075825;28;20028;-87
2021/10/19 02:43:15;;;;;;;12.15;8.43;;;14.20;99.90;;;;;;5082447;28;20051;-87
2021/10/19 02:45:41;;;;;;;13.27;8.27;;;14.20;99.90;;;;;;5079021;28;20075;-88
2021/10/19 02:48:07;;;;;;;11.63;7.35;;;14.20;99.90;;;;;;5087595;28;20124;-88
2021/10/19 02:50:32;;;;;;;10.02;7.88;;;14.20;99.90;;;;;;5095737;28;20379;-88
2021/10/19 02:52:58;;;;;;;11.30;7.80;;;14.20;99.90;;;;;;5088256;28;20056;-88
2021/10/19 02:55:23;;;;;;;10.73;8.05;;;14.20;99.90;;;;;;5077186;28;20035;-87
2021/10/19 02:57:49;;;;;;;9.77;7.25;;;14.20;99.90;;;;;;5090007;28;20031;-88
2021/10/19 03:00:15;;;;;;;12.55;8.68;;;14.20;99.90;;;;;;5096487;28;20131;-88
2021/10/19 03:02:41;;;;;;;11.07;8.15;;;14.20;99.90;;;;;;5110535;28;20061;-88
2021/10/19 03:05:07;;;;;;;10.50;8.73;;;14.30;99.90;;;;;;5093178;28;20034;-88
2021/10/19 03:07:32;;;;;;;12.52;9.20;;;14.20;99.90;;;;;;5082681;28;20024;-87
2021/10/19 03:09:58;;;;;;;12.25;8.90;;;14.20;99.90;;;;;;5091467;28;20475;-87
2021/10/19 03:12:23;;;;;;;12.88;7.88;;;14.20;99.90;;;;;;5093432;28;20024;-89
2021/10/19 03:14:49;;;;;;;10.60;8.73;;;14.20;99.90;;;;;;5109925;28;20020;-88
2021/10/19 03:17:14;;;;;;;11.75;9.55;;;14.20;99.90;;;;;;5096450;28;20027;-87
2021/10/19 03:19:40;;;;;;;13.93;9.25;;;14.20;99.90;;;;;;5084482;28;20028;-88
2021/10/19 03:22:06;;;;;;;13.02;8.98;;;14.20;99.90;;;;;;5078975;28;20028;-88
2021/10/19 03:24:33;;;;;;;13.15;8.73;;;14.20;99.90;;;;;;5106435;27;20059;-88
2021/10/19 03:26:58;;;;;;;14.93;9.27;;;14.20;99.90;;;;;;5097912;28;20038;-87
2021/10/19 03:29:25;;;;;;;12.30;9.27;;;14.20;99.90;;;;;;5089842;28;20032;-87
2021/10/19 03:31:51;;;;;;;13.23;9.55;;;14.20;99.90;;;;;;5096786;28;20570;-87
2021/10/19 03:34:17;;;;;;;14.25;10.07;;;14.20;99.90;;;;;;5095577;28;20063;-88
2021/10/19 03:36:42;;;;;;;13.05;10.00;;;14.20;99.90;;;;;;5103164;28;20054;-88
2021/10/19 03:39:08;;;;;;;14.02;9.23;;;14.20;99.90;;;;;;5095112;27;20028;-88
2021/10/19 03:41:33;;;;;;;11.27;9.35;;;14.20;99.90;;;;;;5094809;28;20031;-88
2021/10/19 03:43:59;;;;;;;10.98;9.15;;;14.30;99.90;;;;;;5082089;28;20040;-88
2021/10/19 03:46:24;;;;;;;13.20;9.90;;;14.20;99.90;;;;;;5071118;28;20035;-88
2021/10/19 03:48:50;;;;;;;13.00;9.27;;;14.20;99.90;;;;;;5075118;28;20039;-87
2021/10/19 03:51:15;;;;;;;13.73;10.48;;;14.20;99.90;;;;;;5075853;28;20024;-88
2021/10/19 03:53:41;;;;;;;11.85;9.90;;;14.30;99.90;;;;;;5075086;28;20020;-88
2021/10/19 03:56:07;;;;;;;14.65;10.60;;;14.20;99.90;;;;;;5076011;28;20472;-88
2021/10/19 03:58:33;;;;;;;11.23;9.20;;;14.20;99.90;;;;;;5074577;28;20369;-88
2021/10/19 04:00:59;;;;;;;13.93;9.52;;;14.30;99.90;;;;;;5075916;28;20031;-88
2021/10/19 04:03:25;;;;;;;11.48;9.45;;;14.30;99.90;;;;;;5092457;28;20392;-88
2021/10/19 04:05:51;;;;;;;10.90;8.98;;;14.30;99.90;;;;;;5075398;28;20086;-88
2021/10/19 04:08:17;;;;;;;11.63;9.45;;;14.30;99.90;;;;;;5072907;28;20506;-88
2021/10/19 04:10:42;;;;;;;12.95;10.27;;;14.30;99.90;;;;;;5074083;28;20143;-88
2021/10/19 04:13:08;;;;;;;12.20;9.75;;;14.30;99.90;;;;;;5074557;28;20029;-88
2021/10/19 04:15:34;;;;;;;14.05;9.57;;;14.30;99.90;;;;;;5072201;28;20052;-88
2021/10/19 04:17:59;;;;;;;13.02;9.52;;;14.30;99.90;;;;;;5072755;28;20449;-88
2021/10/19 04:20:25;;;;;;;12.73;9.75;;;14.30;99.90;;;;;;5074941;28;20024;-88
2021/10/19 04:22:50;;;;;;;10.85;8.93;;;14.30;99.90;;;;;;5075647;28;20119;-88
2021/10/19 04:25:16;;;;;;;10.93;9.32;;;14.30;99.90;;;;;;5064425;28;20021;-88
2021/10/19 04:27:41;;;;;;;12.50;9.25;;;14.30;99.90;;;;;;5072235;28;20024;-88
2021/10/19 04:30:08;;;;;;;12.77;10.10;;;14.30;99.90;;;;;;5090077;28;20357;-88
2021/10/19 04:32:33;;;;;;;10.80;9.18;;;14.30;99.90;;;;;;5072002;28;20052;-87
2021/10/19 04:34:59;;;;;;;12.95;10.38;;;14.30;99.90;;;;;;5075147;28;20077;-88
2021/10/19 04:37:24;;;;;;;12.85;9.63;;;14.30;99.90;;;;;;5075360;28;20024;-87
2021/10/19 04:39:50;;;;;;;12.75;10.27;;;14.30;99.90;;;;;;5070509;28;20031;-88
2021/10/19 04:42:16;;;;;;;13.63;9.55;;;14.30;99.90;;;;;;5073985;28;20040;-87
2021/10/19 04:44:41;;;;;;;13.98;10.23;;;14.40;99.90;;;;;;5072478;28;20511;-87
2021/10/19 04:47:07;;;;;;;12.55;10.52;;;14.30;99.90;;;;;;5091292;28;20046;-88
2021/10/19 04:49:33;;;;;;;12.50;9.63;;;14.40;99.90;;;;;;5093115;28;20008;-88
2021/10/19 04:51:58;;;;;;;15.52;10.82;;;14.30;99.90;;;;;;5074703;28;20024;-88
2021/10/19 04:54:24;;;;;;;16.10;11.68;;;14.40;99.90;;;;;;5077180;28;20055;-87
2021/10/19 04:56:49;;;;;;;13.88;10.75;;;14.30;99.90;;;;;;5075527;28;20072;-88
2021/10/19 04:59:15;;;;;;;14.35;10.45;;;14.30;99.90;;;;;;5074898;28;20038;-88
2021/10/19 05:01:40;;;;;;;15.18;11.43;;;14.30;99.90;;;;;;5078702;28;20032;-88
2021/10/19 05:04:07;;;;;;;14.07;11.27;;;14.30;99.90;;;;;;5075920;28;20529;-88
2021/10/19 05:06:32;;;;;;;14.50;12.23;;;14.30;99.90;;;;;;5078684;28;20024;-88
2021/10/19 05:08:58;;;;;;;16.88;11.38;;;14.30;99.90;;;;;;5076543;28;20451;-87
2021/10/19 05:11:23;;;;;;;17.83;11.63;;;14.30;99.90;;;;;;5085489;28;20045;-87
2021/10/19 05:13:49;;;;;;;14.57;11.73;;;14.30;99.90;;;;;;5073019;28;20501;-87
2021/10/19 05:16:14;;;;;;;16.33;11.98;;;14.20;99.90;;;;;;5069526;28;20532;-87
2021/10/19 05:18:40;;;;;;;15.32;11.45;;;14.30;99.90;;;;;;5072826;28;20062;-88
2021/10/19 05:21:05;;;;;;;14.90;11.10;;;14.30;99.90;;;;;;5075013;28;20078;-88
2021/10/19 05:23:32;;;;;;;14.75;12.00;;;14.30;99.90;;;;;;5075158;28;20036;-88
2021/10/19 05:25:59;;;;;;;14.85;11.35;;;14.30;99.90;;;;;;5074550;28;20032;-89
2021/10/19 05:28:24;;;;;;;14.45;11.82;;;14.30;99.90;;;;;;5071532;28;20111;-88
2021/10/19 05:30:50;;;;;;;13.95;11.48;;;14.30;99.90;;;;;;5070871;28;20345;-89
2021/10/19 05:33:15;;;;;;;18.45;12.45;;;14.20;99.90;;;;;;5073594;28;20040;-88
2021/10/19 05:35:41;;;;;;;15.25;12.38;;;14.30;99.90;;;;;;5064395;28;20362;-88
2021/10/19 05:38:06;;;;;;;14.80;11.40;;;14.30;99.90;;;;;;5069742;28;20039;-89
2021/10/19 05:40:32;;;;;;;16.00;12.00;;;14.30;99.90;;;;;;5070813;28;20027;-89
2021/10/19 05:42:59;;;;;;;18.10;12.82;;;14.30;99.90;;;;;;5070335;28;22139;-91
2021/10/19 05:45:24;;;;;;;15.00;12.15;;;14.30;99.90;;;;;;5068849;28;20029;-89
2021/10/19 05:47:50;;;;;;;16.85;12.75;;;14.30;99.90;;;;;;5074174;28;20105;-89
2021/10/19 05:50:17;;;;;;;13.88;11.55;;;14.20;99.90;;;;;;5091208;28;20060;-89
2021/10/19 05:52:42;;;;;;;14.60;11.95;;;14.30;99.90;;;;;;5085161;28;20032;-88
2021/10/19 05:55:09;;;;;;;14.85;12.45;;;14.30;99.90;;;;;;5090938;28;20109;-90
2021/10/19 05:57:35;;;;;;;17.08;12.88;;;14.30;99.90;;;;;;5082267;28;20039;-89
2021/10/19 06:00:02;;;;;;;14.93;12.50;;;14.30;99.90;;;;;;5078065;28;20020;-90
2021/10/19 06:02:27;;;;;;;14.88;12.20;;;14.30;99.90;;;;;;5087962;28;20197;-89
2021/10/19 06:04:53;;;;;;;15.82;12.70;;;14.30;99.90;;;;;;5080725;28;20035;-88
2021/10/19 06:07:18;;;;;;;13.23;11.63;;;14.30;99.90;;;;;;5094633;28;20020;-90
2021/10/19 06:09:44;;;;;;;15.15;12.30;;;14.40;99.90;;;;;;5072572;28;20031;-89
2021/10/19 06:12:09;;;;;;;15.32;12.75;;;14.40;99.90;;;;;;5095174;28;20016;-87
2021/10/19 06:14:35;;;;;;;15.63;13.43;;;14.40;99.90;;;;;;5069859;28;20036;-89
2021/10/19 06:17:01;;;;;;;15.48;12.27;;;14.40;99.90;;;;;;5091476;28;20073;-89
2021/10/19 06:19:26;;;;;;;17.30;14.02;;;14.40;99.90;;;;;;5076634;28;20028;-89
2021/10/19 06:21:52;;;;;;;16.13;13.30;;;14.40;99.90;;;;;;5078165;28;20039;-88
2021/10/19 06:24:18;;;;;;;16.80;15.00;;;14.40;99.90;;;;;;5075314;28;20032;-89
2021/10/19 06:26:44;;;;;;;19.30;15.02;;;14.40;99.90;;;;;;5078356;28;20024;-89
2021/10/19 06:29:14;;;;;;;19.17;16.15;;;14.40;99.90;;;;;;5077792;28;20032;-88
2021/10/19 06:31:43;;;;;;;17.67;14.82;;;14.50;99.90;;;;;;5060865;28;20096;-87
2021/10/19 06:34:10;;;;;;;19.85;15.85;;;14.50;99.90;;;;;;5084117;28;20024;-89
2021/10/19 06:36:35;;;;;;;18.08;15.73;;;14.50;99.90;;;;;;5094178;28;20032;-88
2021/10/19 06:39:01;;;;;;;17.05;15.15;;;14.50;99.90;;;;;;5059656;28;20030;-89
2021/10/19 06:41:27;;;;;;;16.65;14.50;;;14.50;99.90;;;;;;5087892;28;20036;-90
2021/10/19 06:43:53;;;;;;;17.35;15.18;;;14.50;99.90;;;;;;5076685;28;20048;-89
2021/10/19 06:46:18;;;;;;;20.30;15.93;;;14.60;99.90;;;;;;5064368;28;20134;-89
2021/10/19 06:48:44;;;;;;;20.65;16.95;;;14.60;99.90;;;;;;5092758;28;20032;-89
2021/10/19 06:51:09;;;;;;;18.92;16.30;;;14.60;99.90;;;;;;5077712;28;20480;-89
2021/10/19 06:53:35;;;;;;;20.88;16.27;;;14.70;99.90;;;;;;5077414;28;20024;-88
2021/10/19 06:56:01;;;;;;;18.25;16.23;;;14.60;99.90;;;;;;5075265;28;20028;-88
2021/10/19 06:58:27;;;;;;;20.38;16.52;;;14.70;99.90;;;;;;5093239;28;20092;-88
2021/10/19 07:00:54;;;;;;;18.83;16.55;;;14.70;99.90;;;;;;5087334;28;20479;-89
2021/10/19 07:03:19;;;;;;;19.98;16.70;;;14.70;99.90;;;;;;5092473;28;20487;-89
2021/10/19 07:05:45;;;;;;;21.25;15.77;;;14.70;99.90;;;;;;5081547;28;20028;-90
2021/10/19 07:08:11;;;;;;;19.25;17.20;;;14.70;99.90;;;;;;5071902;28;20028;-89
2021/10/19 07:10:37;;;;;;;19.05;16.90;;;14.70;99.90;;;;;;5071359;28;20039;-89
2021/10/19 07:13:03;;;;;;;21.88;18.27;;;14.80;99.90;;;;;;5082274;28;20475;-89
2021/10/19 07:15:34;;;;;;;21.60;17.70;;;14.80;99.90;;;;;;5069929;28;20031;-89
2021/10/19 07:18:01;;;;;;;21.80;17.75;;;14.80;99.90;;;;;;5082022;28;20039;-90
2021/10/19 07:20:27;;;;;;;20.20;17.80;;;14.80;99.90;;;;;;5073961;28;20032;-89
2021/10/19 07:22:55;;;;;;;20.48;17.98;;;14.90;99.90;;;;;;5086282;28;20042;-90
2021/10/19 07:25:20;;;;;;;23.73;18.50;;;14.90;99.90;;;;;;5062742;28;20028;-90
2021/10/19 07:27:46;;;;;;;21.15;18.35;;;14.90;99.90;;;;;;5080304;28;20024;-89
2021/10/19 07:30:12;;;;;;;24.67;19.95;;;14.90;99.90;;;;;;5074130;28;20028;-90
2021/10/19 07:32:38;;;;;;;25.65;20.15;;;14.90;99.90;;;;;;5066942;28;20071;-90
2021/10/19 07:35:05;;;;;;;23.33;19.58;;;14.90;99.90;;;;;;5080966;28;20016;-89
2021/10/19 07:37:38;;;;;;;22.63;19.45;;;15.00;99.90;;;;;;5059394;28;20484;-89
2021/10/19 07:40:06;;;;;;;23.15;19.48;;;15.00;99.90;;;;;;5074002;28;20535;-91
2021/10/19 07:42:33;;;;;;;23.15;19.38;;;15.00;99.90;;;;;;5074979;28;20035;-92
2021/10/19 07:45:03;;;;;;;21.80;18.65;;;15.10;99.90;;;;;;5083139;28;20495;-91
2021/10/19 07:47:29;;;;;;;24.75;18.95;;;15.10;99.90;;;;;;5077351;28;20036;-91
2021/10/19 07:49:54;;;;;;;21.67;18.48;;;15.10;99.90;;;;;;5095425;28;20035;-91
2021/10/19 07:52:20;;;;;;;23.15;18.92;;;15.20;99.90;;;;;;5094654;28;20028;-91
2021/10/19 07:54:45;;;;;;;21.17;18.10;;;15.20;99.90;;;;;;5077222;28;20047;-90
2021/10/19 07:57:11;;;;;;;18.35;16.45;;;15.20;99.90;;;;;;5078109;28;20082;-91
2021/10/19 07:59:37;;;;;;;20.98;17.90;;;15.30;99.90;;;;;;5077752;28;20079;-90
2021/10/19 08:02:06;;;;;;;19.60;17.13;;;15.30;99.90;;;;;;5077479;28;20040;-92
2021/10/19 08:04:32;;;;;;;17.98;16.08;;;15.40;99.90;;;;;;5074865;28;20116;-90
2021/10/19 08:06:58;;;;;;;19.85;17.60;;;15.50;99.90;;;;;;5076712;28;20051;-90
2021/10/19 08:09:24;;;;;;;18.55;16.33;;;15.50;99.90;;;;;;5057150;28;20029;-91
2021/10/19 08:11:50;;;;;;;18.83;16.40;;;15.50;99.90;;;;;;5074553;28;20032;-90
2021/10/19 08:14:15;;;;;;;18.00;16.10;;;15.60;99.90;;;;;;5074344;28;20027;-91
2021/10/19 08:16:41;;;;;;;19.15;15.35;;;15.60;99.90;;;;;;5074855;28;20011;-90
2021/10/19 08:19:06;;;;;;;20.27;15.63;;;15.60;99.90;;;;;;5071336;28;20027;-89
2021/10/19 08:21:32;;;;;;;19.52;16.25;;;15.70;99.90;;;;;;5095263;28;20036;-90
2021/10/19 08:24:01;;;;;;;17.38;15.35;;;15.80;99.90;;;;;;5076550;28;20020;-91
2021/10/19 08:26:30;;;;;;;16.67;14.90;;;15.80;99.90;;;;;;5069041;28;20883;-90
2021/10/19 08:29:01;;;;;;;19.20;15.93;;;15.80;99.90;;;;;;5074926;28;20028;-89
2021/10/19 08:31:28;;;;;;;18.17;14.88;;;15.80;99.90;;;;;;5083551;28;20028;-89
2021/10/19 08:33:54;;;;;;;18.45;13.95;;;15.80;99.90;;;;;;5081026;28;20027;-89
2021/10/19 08:36:20;;;;;;;15.10;13.50;;;15.90;99.90;;;;;;5091662;28;20403;-89
2021/10/19 08:38:46;;;;;;;16.40;13.48;;;15.90;99.90;;;;;;5084160;28;20024;-90
2021/10/19 08:41:13;;;;;;;17.25;13.25;;;16.00;99.90;;;;;;5098935;28;20020;-89
2021/10/19 08:43:38;;;;;;;15.73;12.77;;;16.00;99.90;;;;;;5084375;28;20138;-89
2021/10/19 08:46:08;;;;;;;14.15;12.75;;;16.10;99.90;;;;;;5090252;28;20055;-89
2021/10/19 08:48:35;;;;;;;12.55;11.23;;;16.10;99.90;;;;;;5078927;28;20059;-90
2021/10/19 08:51:02;;;;;;;15.85;12.52;;;16.20;99.90;;;;;;5084521;28;20031;-90
2021/10/19 08:53:27;;;;;;;12.85;10.82;;;16.20;99.90;;;;;;5084128;28;20395;-91
2021/10/19 08:55:53;;;;;;;12.05;10.80;;;16.20;99.90;;;;;;5081905;28;20016;-92
2021/10/19 08:58:18;;;;;;;12.93;11.35;;;16.30;99.90;;;;;;5096297;28;20035;-90
2021/10/19 09:00:44;;;;;;;12.13;10.00;;;16.30;99.90;;;;;;5085306;28;20486;-92
2021/10/19 09:03:10;;;;;;;10.63;9.10;;;16.30;99.90;;;;;;5082533;28;20522;-92
2021/10/19 09:05:36;;;;;;;13.25;9.00;;;16.30;99.90;;;;;;5069570;28;20514;-90
2021/10/19 09:08:05;;;;;;;11.95;9.40;;;16.30;99.90;;;;;;5082396;28;20487;-92
2021/10/19 09:10:36;;;;;;;10.77;9.48;;;16.30;99.90;;;;;;5081133;28;20028;-92
2021/10/19 09:13:05;;;;;;;10.48;8.68;;;16.40;99.90;;;;;;5097084;28;20031;-91
2021/10/19 09:15:33;;;;;;;9.75;8.85;;;16.40;99.90;;;;;;5083138;28;20472;-91
2021/10/19 09:18:01;;;;;;;10.15;8.77;;;16.40;99.90;;;;;;5081987;28;20035;-91
2021/10/19 09:20:26;;;;;;;8.48;7.68;;;16.40;99.90;;;;;;5083219;28;20053;-90
2021/10/19 09:22:57;;;;;;;7.43;6.68;;;16.40;99.90;;;;;;5075791;28;20036;-91
2021/10/19 09:25:51;;;;;;;7.50;6.80;;;16.50;99.90;;;;;;5075596;28;20122;-90
2021/10/19 09:28:35;;;;;;;6.70;6.10;;;16.50;99.90;;;;;;5077385;28;20070;-88
2021/10/19 09:31:00;;;;;;;6.47;5.88;;;16.50;99.90;;;;;;5081350;28;20028;-89
2021/10/19 09:33:26;;;;;;;5.75;5.25;;;16.50;99.90;;;;;;5078074;28;20101;-90
2021/10/19 09:35:55;;;;;;;6.88;5.68;;;16.50;99.90;;;;;;5098147;28;20020;-90
2021/10/19 09:38:27;;;;;;;6.28;5.78;;;16.60;99.90;;;;;;5076041;28;20032;-91
2021/10/19 09:40:56;;;;;;;6.03;5.50;;;16.50;99.90;;;;;;5088325;28;20024;-90
2021/10/19 09:43:27;;;;;;;6.22;4.50;;;16.60;99.90;;;;;;5099109;28;20056;-94
2021/10/19 09:45:55;;;;;;;4.97;4.57;;;16.60;99.90;;;;;;5093516;28;20040;-90
2021/10/19 09:48:26;;;;;;;6.00;4.47;;;16.70;99.90;;;;;;5082960;28;20027;-92
2021/10/19 09:50:55;;;;;;;4.72;4.18;;;16.70;99.90;;;;;;5099224;28;20034;-93
2021/10/19 09:53:23;;;;;;;4.30;3.90;;;16.70;99.90;;;;;;5097284;28;20055;-92
2021/10/19 09:55:51;;;;;;;4.40;4.00;;;16.70;99.90;;;;;;5098704;28;20016;-92
2021/10/19 09:58:19;;;;;;;6.00;4.80;;;16.70;99.90;;;;;;5097971;28;20024;-91
2021/10/19 10:00:45;;;;;;;4.78;4.35;;;16.70;99.90;;;;;;5095608;28;20027;-89
2021/10/19 10:03:13;;;;;;;5.55;5.05;;;16.70;99.90;;;;;;5097777;28;20035;-89
2021/10/19 10:05:40;;;;;;;6.82;5.22;;;16.70;99.90;;;;;;5096837;28;20478;-90
2021/10/19 10:08:10;;;;;;;6.43;5.82;;;16.70;99.90;;;;;;5097202;28;20035;-91
2021/10/19 10:10:36;;;;;;;7.07;5.65;;;16.80;99.90;;;;;;5096449;28;20358;-91
2021/10/19 10:13:06;;;;;;;6.32;5.40;;;16.80;99.90;;;;;;5113729;28;20446;-92
2021/10/19 10:15:34;;;;;;;7.95;6.45;;;16.80;99.90;;;;;;5111141;28;20019;-90
2021/10/19 10:18:05;;;;;;;6.32;5.75;;;16.80;99.90;;;;;;5110177;28;20055;-90
2021/10/19 10:20:36;;;;;;;7.00;6.32;;;16.90;99.90;;;;;;5100239;28;20085;-90
2021/10/19 10:23:18;;;;;;;7.43;5.82;;;16.90;99.90;;;;;;5098912;28;20506;-90
2021/10/19 10:25:46;;;;;;;9.45;6.57;;;16.90;99.90;;;;;;5110801;27;20032;-89
2021/10/19 10:28:26;;;;;;;7.07;6.28;;;17.00;99.90;;;;;;5109907;28;20616;-91
2021/10/19 10:30:52;;;;;;;7.75;6.30;;;17.00;99.90;;;;;;5099255;28;20458;-92
2021/10/19 10:33:30;;;;;;;9.00;6.75;;;17.10;99.90;;;;;;5097607;28;20023;-91
2021/10/19 10:36:01;;;;;;;8.20;6.82;;;17.20;99.90;;;;;;5090575;28;20107;-91
2021/10/19 10:38:26;;;;;;;8.63;6.63;;;17.30;99.90;;;;;;5096524;28;20027;-90
2021/10/19 10:40:56;;;;;;;9.63;7.72;;;17.30;99.90;;;;;;5098914;28;20089;-91
2021/10/19 10:43:28;;;;;;;10.55;7.82;;;17.30;99.90;;;;;;5098144;28;20036;-92
2021/10/19 10:46:12;;;;;;;8.35;6.45;;;17.40;99.90;;;;;;5098306;28;20023;-90
2021/10/19 10:48:39;;;;;;;10.05;7.93;;;17.40;99.90;;;;;;5098218;28;20032;-90
2021/10/19 10:51:06;;;;;;;10.07;7.78;;;17.40;99.90;;;;;;5119593;27;20023;-91
2021/10/19 10:53:43;;;;;;;11.00;8.80;;;17.40;99.90;;;;;;5096819;28;20031;-91
2021/10/19 10:56:11;;;;;;;11.60;8.68;;;17.40;99.90;;;;;;5099369;28;20034;-92
2021/10/19 10:58:41;;;;;;;10.95;9.32;;;17.50;99.90;;;;;;5108672;28;20031;-92
2021/10/19 11:01:15;;;;;;;9.38;8.40;;;17.50;99.90;;;;;;5084193;28;20027;-92
2021/10/19 11:03:43;;;;;;;14.43;8.70;;;17.50;99.90;;;;;;5116746;28;20028;-92
2021/10/19 11:06:12;;;;;;;11.32;8.50;;;17.60;99.90;;;;;;5114060;28;20387;-90
2021/10/19 11:08:38;;;;;;;10.40;8.73;;;17.70;99.90;;;;;;5088582;28;20106;-91
2021/10/19 11:11:11;;;;;;;12.32;9.45;;;17.60;99.90;;;;;;5112937;28;20044;-92
2021/10/19 11:13:59;;;;;;;14.95;9.85;;;17.70;99.90;;;;;;5102433;28;20028;-92
2021/10/19 11:16:35;;;;;;;11.35;9.40;;;17.70;99.90;;;;;;5104592;28;20035;-89
2021/10/19 11:19:04;;;;;;;11.95;9.60;;;17.80;99.90;;;;;;5099957;28;20031;-91
2021/10/19 11:21:32;;;;;;;12.85;10.32;;;17.80;99.90;;;;;;5080552;28;20093;-91
2021/10/19 11:23:57;;;;;;;12.70;10.23;;;17.80;99.90;;;;;;5099522;28;20046;-92
2021/10/19 11:26:24;;;;;;;13.00;10.80;;;17.80;99.90;;;;;;5087924;28;20028;-89
2021/10/19 11:28:53;;;;;;;11.60;9.73;;;17.80;99.90;;;;;;5099715;28;20077;-92
2021/10/19 11:31:18;;;;;;;16.60;11.00;;;17.80;99.90;;;;;;5085602;28;20028;-90
2021/10/19 11:33:45;;;;;;;13.05;10.10;;;17.80;99.90;;;;;;5097296;28;20091;-90
2021/10/19 11:36:12;;;;;;;14.63;11.32;;;17.80;99.90;;;;;;5116080;28;20030;-91
2021/10/19 11:38:44;;;;;;;14.30;10.50;;;17.80;99.90;;;;;;5099048;28;20053;-89
2021/10/19 11:41:15;;;;;;;13.93;11.17;;;17.80;99.90;;;;;;5092171;28;20027;-89
2021/10/19 11:43:45;;;;;;;17.75;11.48;;;17.80;99.90;;;;;;5091051;28;20028;-90
2021/10/19 11:46:15;;;;;;;16.27;11.85;;;17.80;99.90;;;;;;5097274;28;20016;-91
2021/10/19 11:48:41;;;;;;;15.25;11.63;;;17.90;99.90;;;;;;5098285;28;20497;-90
2021/10/19 11:51:11;;;;;;;15.13;11.77;;;17.80;99.90;;;;;;5112337;28;20398;-91
2021/10/19 11:53:41;;;;;;;15.90;11.55;;;17.80;99.90;;;;;;5097015;28;20020;-90
2021/10/19 11:56:09;;;;;;;18.35;12.75;;;17.80;99.90;;;;;;5099561;28;20027;-89
2021/10/19 11:58:46;;;;;;;14.40;11.63;;;17.80;99.90;;;;;;5097690;28;20107;-89
2021/10/19 12:01:13;;;;;;;17.80;12.82;;;17.80;99.90;;;;;;5081550;28;20036;-89
2021/10/19 12:03:38;;;;;;;14.93;11.93;;;17.80;99.90;;;;;;5093567;28;20061;-90
2021/10/19 12:06:12;;;;;;;14.20;11.32;;;17.80;99.90;;;;;;5099218;28;20031;-89
2021/10/19 12:08:42;;;;;;;16.15;13.02;;;17.70;99.90;;;;;;5109741;28;20024;-90
2021/10/19 12:11:12;;;;;;;14.98;11.45;;;17.70;99.90;;;;;;5112691;28;20023;-90
2021/10/19 12:13:40;;;;;;;15.02;11.73;;;17.70;99.90;;;;;;5094513;28;20092;-91
2021/10/19 12:16:09;;;;;;;14.15;11.85;;;17.70;99.90;;;;;;5095666;28;20031;-90
2021/10/19 12:18:40;;;;;;;14.25;12.35;;;17.70;99.90;;;;;;5096825;28;20039;-89
2021/10/19 12:21:05;;;;;;;13.80;11.63;;;17.70;99.90;;;;;;5096930;28;20175;-89
2021/10/19 12:23:31;;;;;;;14.88;11.05;;;17.70;99.90;;;;;;5091815;28;20089;-90
2021/10/19 12:25:56;;;;;;;14.10;11.00;;;17.70;99.90;;;;;;5097128;28;20031;-88
2021/10/19 12:28:27;;;;;;;16.13;11.50;;;17.70;99.90;;;;;;5084612;28;20046;-89
2021/10/19 12:30:55;;;;;;;15.82;11.20;;;17.60;99.90;;;;;;5083591;28;20118;-89